Time;durP1;ratioP1;P1;durP2;ratioP2;P2;SDS_P1;SDS_P2;PMS_P1;PMS_P2;Temp;Humidity;BMP_temperature;BMP_pressure;BME280_temperature;BME280_humidity;BME280_pressure;Samples;Min_cycle;Max_cycle;Signal;HPM_P1;HPM_P2
2023/01/12 00:01:43;;;;;;;35.70;18.97;;;;;;;;;;4978633;28;20213;-45
2023/01/12 00:04:13;;;;;;;46.07;23.80;;;;;;;;;;4978647;28;20698;-44
2023/01/12 00:06:41;;;;;;;32.90;17.40;;;;;;;;;;4978776;28;20206;-44
2023/01/12 00:09:08;;;;;;;47.23;26.73;;;;;;;;;;4978480;28;20231;-45
2023/01/12 00:11:37;;;;;;;53.53;32.57;;;;;;;;;;4978459;28;20656;-44
2023/01/12 00:14:05;;;;;;;150.87;47.17;;;;;;;;;;4978449;28;20575;-46
2023/01/12 00:16:36;;;;;;;112.80;40.63;;;;;;;;;;4978617;28;20206;-44
2023/01/12 00:19:16;;;;;;;156.90;51.07;;;;;;;;;;4978477;28;20207;-45
2023/01/12 00:21:58;;;;;;;67.17;32.00;;;;;;;;;;4978522;28;20620;-45
2023/01/12 00:24:27;;;;;;;84.87;38.87;;;;;;;;;;4978326;28;20207;-44
2023/01/12 00:26:57;;;;;;;51.90;29.40;;;;;;;;;;4978657;28;20247;-45
2023/01/12 00:29:25;;;;;;;47.37;28.13;;;;;;;;;;4958830;28;20223;-45
2023/01/12 00:31:54;;;;;;;109.77;49.47;;;;;;;;;;4958763;29;20556;-45
2023/01/12 00:34:21;;;;;;;41.93;20.63;;;;;;;;;;4958813;28;20219;-45
2023/01/12 00:36:48;;;;;;;29.47;16.23;;;;;;;;;;4958693;29;20211;-46
2023/01/12 00:39:15;;;;;;;26.30;14.47;;;;;;;;;;4958616;29;20215;-47
2023/01/12 00:47:15;;;;;;;23.97;15.90;;;;;;;;;;4958557;29;20204;-45
2023/01/12 00:49:42;;;;;;;25.93;15.23;;;;;;;;;;4958679;29;20282;-45
2023/01/12 00:52:15;;;;;;;33.47;16.77;;;;;;;;;;4958666;28;20222;-45
2023/01/12 00:54:56;;;;;;;28.27;15.50;;;;;;;;;;4957646;28;20254;-44
2023/01/12 00:57:24;;;;;;;27.07;14.73;;;;;;;;;;4958275;28;20269;-45
2023/01/12 00:59:53;;;;;;;28.93;15.97;;;;;;;;;;4958587;28;20303;-45
2023/01/12 01:02:22;;;;;;;29.50;15.17;;;;;;;;;;4958537;28;20215;-49
2023/01/12 01:04:49;;;;;;;57.23;30.60;;;;;;;;;;4958210;28;20294;-45
2023/01/12 01:07:20;;;;;;;34.13;17.57;;;;;;;;;;4958150;29;20211;-47
2023/01/12 01:09:47;;;;;;;37.33;16.80;;;;;;;;;;4958283;28;20242;-45
2023/01/12 01:12:15;;;;;;;36.77;17.03;;;;;;;;;;4958355;28;20204;-45
2023/01/12 01:14:42;;;;;;;35.70;17.47;;;;;;;;;;4958001;28;20239;-46
2023/01/12 01:17:09;;;;;;;81.07;31.33;;;;;;;;;;4957977;29;20636;-46
2023/01/12 01:19:36;;;;;;;29.80;20.60;;;;;;;;;;4957906;28;20616;-47
2023/01/12 01:22:04;;;;;;;31.43;17.13;;;;;;;;;;4957830;29;20546;-46
2023/01/12 01:24:31;;;;;;;22.77;13.43;;;;;;;;;;4958234;28;20295;-44
2023/01/12 01:26:58;;;;;;;32.93;15.63;;;;;;;;;;4957739;29;20211;-45
2023/01/12 01:29:25;;;;;;;31.33;15.27;;;;;;;;;;4957872;29;20204;-45
2023/01/12 01:31:55;;;;;;;29.47;15.37;;;;;;;;;;4958041;28;20277;-46
2023/01/12 01:34:25;;;;;;;28.67;15.47;;;;;;;;;;4957842;28;20215;-47
2023/01/12 01:36:52;;;;;;;24.80;14.67;;;;;;;;;;4957963;29;20266;-45
2023/01/12 01:39:19;;;;;;;26.73;15.17;;;;;;;;;;4957703;28;20203;-46
2023/01/12 01:41:47;;;;;;;31.63;17.17;;;;;;;;;;4957543;28;20238;-49
2023/01/12 01:44:29;;;;;;;40.80;17.53;;;;;;;;;;4957488;29;20203;-45
2023/01/12 01:47:01;;;;;;;40.97;17.53;;;;;;;;;;4957790;28;20214;-45
2023/01/12 01:49:39;;;;;;;30.93;15.30;;;;;;;;;;4956549;29;20209;-45
2023/01/12 01:52:20;;;;;;;30.93;22.53;;;;;;;;;;4957374;28;20266;-46
2023/01/12 01:55:01;;;;;;;39.57;21.27;;;;;;;;;;4956621;29;20238;-46
2023/01/12 01:57:34;;;;;;;29.70;16.70;;;;;;;;;;4972417;28;20262;-45
2023/01/12 02:00:02;;;;;;;40.57;18.00;;;;;;;;;;4940479;29;20221;-45
2023/01/12 02:02:33;;;;;;;35.03;17.50;;;;;;;;;;4957459;28;20188;-48
2023/01/12 02:05:00;;;;;;;39.23;19.07;;;;;;;;;;4957318;28;20218;-46
2023/01/12 02:07:27;;;;;;;34.93;17.27;;;;;;;;;;4956993;28;20216;-45
2023/01/12 02:09:54;;;;;;;30.37;16.87;;;;;;;;;;4957054;29;20253;-45
2023/01/12 02:18:18;;;;;;;34.13;16.57;;;;;;;;;;4970023;28;20539;-45
2023/01/12 02:21:00;;;;;;;38.27;17.83;;;;;;;;;;4956880;29;20223;-47
2023/01/12 02:23:33;;;;;;;27.87;14.83;;;;;;;;;;4971835;28;20722;-44
2023/01/12 02:26:21;;;;;;;38.33;17.30;;;;;;;;;;4956930;29;20203;-44
2023/01/12 02:29:13;;;;;;;34.37;20.47;;;;;;;;;;4956726;29;20231;-44
2023/01/12 02:32:08;;;;;;;27.50;16.97;;;;;;;;;;4956625;28;20227;-44
2023/01/12 02:35:06;;;;;;;34.67;16.33;;;;;;;;;;4956608;29;20259;-44
2023/01/12 02:37:41;;;;;;;49.33;22.37;;;;;;;;;;4956489;29;20529;-45
2023/01/12 02:40:22;;;;;;;37.27;19.70;;;;;;;;;;4955966;29;20191;-44
2023/01/12 02:43:25;;;;;;;31.50;18.00;;;;;;;;;;4955967;29;20219;-45
2023/01/12 02:45:59;;;;;;;30.93;17.03;;;;;;;;;;4956550;29;20296;-46
2023/01/12 02:48:48;;;;;;;27.97;16.00;;;;;;;;;;4971370;28;20210;-47
2023/01/12 02:51:21;;;;;;;23.07;14.10;;;;;;;;;;4956244;29;20215;-44
2023/01/12 02:53:58;;;;;;;24.97;14.73;;;;;;;;;;4956283;29;20203;-44
2023/01/12 02:56:33;;;;;;;34.03;17.50;;;;;;;;;;4955421;29;20202;-45
2023/01/12 02:59:04;;;;;;;31.57;16.60;;;;;;;;;;4955382;29;20632;-44
2023/01/12 03:01:34;;;;;;;35.43;17.70;;;;;;;;;;4955649;29;20192;-47
2023/01/12 03:04:03;;;;;;;47.53;36.23;;;;;;;;;;4955887;28;20283;-44
2023/01/12 03:06:45;;;;;;;34.63;18.27;;;;;;;;;;4955185;29;20652;-45
2023/01/12 03:09:17;;;;;;;41.77;19.47;;;;;;;;;;4955206;29;20258;-45
2023/01/12 03:11:45;;;;;;;33.17;16.50;;;;;;;;;;4955988;28;20227;-44
2023/01/12 03:14:13;;;;;;;29.60;15.77;;;;;;;;;;4955051;29;20235;-45
2023/01/12 03:16:40;;;;;;;28.90;15.73;;;;;;;;;;4939558;29;20211;-44
2023/01/12 03:19:13;;;;;;;34.67;17.30;;;;;;;;;;4955824;28;20704;-46
2023/01/12 03:21:47;;;;;;;27.87;15.70;;;;;;;;;;4955289;29;20199;-45
2023/01/12 03:24:18;;;;;;;40.67;18.83;;;;;;;;;;4955261;29;20602;-44
2023/01/12 03:26:49;;;;;;;32.83;17.10;;;;;;;;;;4954892;29;20680;-44
2023/01/12 03:29:28;;;;;;;37.47;16.60;;;;;;;;;;4955853;28;20549;-46
2023/01/12 03:31:56;;;;;;;40.73;18.40;;;;;;;;;;4955750;29;20530;-45
2023/01/12 03:34:22;;;;;;;31.90;16.73;;;;;;;;;;4955209;29;20294;-45
2023/01/12 03:36:58;;;;;;;32.73;16.83;;;;;;;;;;4955152;29;20203;-46
2023/01/12 03:39:32;;;;;;;30.03;17.20;;;;;;;;;;4955881;29;20218;-46
2023/01/12 03:42:07;;;;;;;51.50;21.77;;;;;;;;;;4955764;28;20208;-45
2023/01/12 03:44:40;;;;;;;79.53;55.87;;;;;;;;;;4955979;28;20190;-46
2023/01/12 03:47:12;;;;;;;48.57;23.03;;;;;;;;;;4970679;28;20222;-45
2023/01/12 03:49:44;;;;;;;41.87;20.43;;;;;;;;;;4955990;28;20195;-44
2023/01/12 03:52:12;;;;;;;42.87;18.07;;;;;;;;;;4970845;28;20278;-48
2023/01/12 03:54:40;;;;;;;34.87;18.03;;;;;;;;;;4954548;29;20230;-45
2023/01/12 03:57:08;;;;;;;36.60;17.83;;;;;;;;;;4955647;28;20214;-46
2023/01/12 03:59:35;;;;;;;33.93;17.50;;;;;;;;;;4954920;29;20252;-45
2023/01/12 04:02:03;;;;;;;37.07;18.27;;;;;;;;;;4970620;28;20218;-45
2023/01/12 04:04:30;;;;;;;31.57;17.30;;;;;;;;;;4955569;28;20640;-44
2023/01/12 04:06:57;;;;;;;45.27;22.10;;;;;;;;;;4955505;28;20207;-47
2023/01/12 04:09:27;;;;;;;44.03;20.93;;;;;;;;;;4954947;29;20253;-46
2023/01/12 04:12:09;;;;;;;39.77;19.73;;;;;;;;;;4955657;28;20235;-45
2023/01/12 04:14:41;;;;;;;34.57;17.27;;;;;;;;;;4955393;28;20212;-47
2023/01/12 04:17:12;;;;;;;33.37;17.50;;;;;;;;;;4955554;29;20541;-45
2023/01/12 04:19:39;;;;;;;42.30;19.37;;;;;;;;;;4955464;28;20207;-45
2023/01/12 04:24:53;;;;;;;39.77;18.47;;;;;;;;;;4968313;28;20266;-45
2023/01/12 04:27:20;;;;;;;58.47;35.07;;;;;;;;;;4955289;28;20636;-45
2023/01/12 04:29:47;;;;;;;46.33;22.17;;;;;;;;;;4956024;28;20285;-45
2023/01/12 04:32:14;;;;;;;42.57;20.57;;;;;;;;;;4975427;28;20235;-47
2023/01/12 04:34:41;;;;;;;42.97;20.37;;;;;;;;;;4978382;28;20210;-48
2023/01/12 04:37:09;;;;;;;33.10;18.67;;;;;;;;;;4977537;28;20288;-46
2023/01/12 04:39:36;;;;;;;33.50;17.97;;;;;;;;;;4977852;28;20599;-47
2023/01/12 04:42:03;;;;;;;81.00;51.30;;;;;;;;;;4977447;28;20210;-46
2023/01/12 04:44:31;;;;;;;49.90;30.93;;;;;;;;;;4977777;28;20282;-45
2023/01/12 04:46:58;;;;;;;49.10;29.67;;;;;;;;;;4976495;28;20265;-45
2023/01/12 04:49:25;;;;;;;50.87;31.87;;;;;;;;;;4976584;28;20611;-45
2023/01/12 04:51:53;;;;;;;73.43;37.50;;;;;;;;;;4977437;28;20231;-44
2023/01/12 04:54:20;;;;;;;72.43;28.70;;;;;;;;;;4975835;28;20294;-45
2023/01/12 04:56:47;;;;;;;38.87;20.77;;;;;;;;;;4977722;28;20209;-46
2023/01/12 04:59:14;;;;;;;45.50;21.93;;;;;;;;;;4977944;28;20234;-46
2023/01/12 05:01:41;;;;;;;48.37;24.03;;;;;;;;;;4977842;28;20222;-47
2023/01/12 05:04:08;;;;;;;56.50;27.87;;;;;;;;;;4976768;28;20275;-44
2023/01/12 05:06:36;;;;;;;71.30;36.37;;;;;;;;;;4977357;28;20210;-45
2023/01/12 05:11:48;;;;;;;54.60;24.03;;;;;;;;;;4976593;28;20691;-44
2023/01/12 05:14:15;;;;;;;33.23;18.43;;;;;;;;;;4976411;28;20281;-44
2023/01/12 05:16:42;;;;;;;43.27;21.50;;;;;;;;;;4976660;28;20235;-45
2023/01/12 05:19:09;;;;;;;44.67;21.93;;;;;;;;;;4976577;28;20231;-44
2023/01/12 05:21:36;;;;;;;46.70;23.03;;;;;;;;;;4976557;28;20237;-47
2023/01/12 05:24:03;;;;;;;44.10;21.97;;;;;;;;;;4960993;28;20310;-44
2023/01/12 05:26:31;;;;;;;57.83;28.50;;;;;;;;;;4957071;28;20661;-43
2023/01/12 05:28:58;;;;;;;54.70;25.37;;;;;;;;;;4957335;28;20608;-44
2023/01/12 05:31:25;;;;;;;56.00;24.33;;;;;;;;;;4957161;28;20604;-45
2023/01/12 05:33:52;;;;;;;41.97;20.80;;;;;;;;;;4957250;28;20628;-44
2023/01/12 05:36:20;;;;;;;56.43;30.10;;;;;;;;;;4956950;28;20297;-44
2023/01/12 05:38:46;;;;;;;51.07;34.37;;;;;;;;;;4961879;28;20234;-45
2023/01/12 05:41:14;;;;;;;37.93;21.50;;;;;;;;;;4975867;28;20218;-44
2023/01/12 05:43:50;;;;;;;38.53;20.63;;;;;;;;;;4975006;28;20266;-44
2023/01/12 05:46:29;;;;;;;41.00;20.50;;;;;;;;;;4976254;28;20226;-44
2023/01/12 05:48:57;;;;;;;37.60;20.43;;;;;;;;;;4976261;28;20230;-48
2023/01/12 05:51:26;;;;;;;37.03;19.90;;;;;;;;;;4974821;28;20241;-45
2023/01/12 05:53:53;;;;;;;37.33;20.10;;;;;;;;;;4973803;28;20612;-45
2023/01/12 05:56:26;;;;;;;40.43;20.27;;;;;;;;;;4974132;28;20258;-45
2023/01/12 05:58:58;;;;;;;40.97;20.87;;;;;;;;;;4974207;28;20805;-44
2023/01/12 06:01:27;;;;;;;42.73;22.60;;;;;;;;;;4973953;28;20504;-45
2023/01/12 06:03:56;;;;;;;40.10;21.00;;;;;;;;;;4974491;28;20242;-45
2023/01/12 06:06:25;;;;;;;46.27;22.17;;;;;;;;;;4973811;28;20222;-44
2023/01/12 06:08:53;;;;;;;40.57;21.73;;;;;;;;;;4975201;28;20254;-45
2023/01/12 06:14:07;;;;;;;47.10;25.10;;;;;;;;;;4975640;28;20589;-47
2023/01/12 06:16:40;;;;;;;43.40;23.23;;;;;;;;;;4975088;28;20683;-45
2023/01/12 06:19:08;;;;;;;47.23;23.40;;;;;;;;;;4975109;28;20670;-44
2023/01/12 06:21:39;;;;;;;47.17;23.57;;;;;;;;;;4975307;28;20587;-44
2023/01/12 06:24:06;;;;;;;43.60;22.17;;;;;;;;;;4975108;28;20265;-45
2023/01/12 06:26:34;;;;;;;41.27;22.03;;;;;;;;;;4974968;28;20223;-44
2023/01/12 06:29:02;;;;;;;42.93;22.27;;;;;;;;;;4975098;28;20222;-46
2023/01/12 06:31:29;;;;;;;43.27;23.40;;;;;;;;;;4974710;28;20690;-43
2023/01/12 06:33:57;;;;;;;51.07;25.70;;;;;;;;;;4954794;28;20234;-48
2023/01/12 06:36:24;;;;;;;44.93;25.03;;;;;;;;;;4954038;28;20231;-45
2023/01/12 06:38:51;;;;;;;46.57;25.03;;;;;;;;;;4955343;28;20239;-46
2023/01/12 06:44:11;;;;;;;47.83;24.97;;;;;;;;;;4964973;28;20226;-50
2023/01/12 06:46:38;;;;;;;41.93;25.33;;;;;;;;;;4973240;28;20223;-47
2023/01/12 06:49:06;;;;;;;47.83;25.20;;;;;;;;;;4974610;28;20553;-44
2023/01/12 06:51:33;;;;;;;44.93;24.77;;;;;;;;;;4973191;28;20238;-47
2023/01/12 06:54:00;;;;;;;45.33;24.13;;;;;;;;;;4973858;28;20250;-48
2023/01/12 06:56:27;;;;;;;43.17;24.10;;;;;;;;;;4973661;28;20230;-47
2023/01/12 06:58:54;;;;;;;40.93;21.83;;;;;;;;;;4974829;28;20230;-44
2023/01/12 07:01:23;;;;;;;38.00;22.30;;;;;;;;;;4971637;28;20699;-47
2023/01/12 07:03:51;;;;;;;39.67;21.37;;;;;;;;;;4974305;28;20568;-46
2023/01/12 07:06:18;;;;;;;40.03;21.73;;;;;;;;;;4973857;28;20222;-45
2023/01/12 07:08:45;;;;;;;43.60;21.97;;;;;;;;;;4974392;28;20227;-49
2023/01/12 07:11:14;;;;;;;47.97;22.20;;;;;;;;;;4974459;28;20238;-50
2023/01/12 07:13:41;;;;;;;44.80;22.17;;;;;;;;;;4974530;28;20305;-48
2023/01/12 07:16:08;;;;;;;41.63;22.00;;;;;;;;;;4974243;28;20736;-46
2023/01/12 07:18:35;;;;;;;45.83;25.23;;;;;;;;;;4973993;28;20222;-51
2023/01/12 07:21:06;;;;;;;39.27;23.50;;;;;;;;;;4973673;28;20249;-48
2023/01/12 07:23:34;;;;;;;40.20;22.03;;;;;;;;;;4962255;28;20314;-52
2023/01/12 07:26:01;;;;;;;46.63;23.43;;;;;;;;;;4953892;28;20223;-47
2023/01/12 07:28:30;;;;;;;45.23;22.90;;;;;;;;;;4954625;28;20224;-51
2023/01/12 07:31:01;;;;;;;43.80;22.80;;;;;;;;;;4954890;28;20227;-46
2023/01/12 07:33:29;;;;;;;45.70;22.67;;;;;;;;;;4955328;28;20569;-50
2023/01/12 07:35:58;;;;;;;46.30;23.77;;;;;;;;;;4954384;28;20236;-47
2023/01/12 07:38:26;;;;;;;45.77;24.53;;;;;;;;;;4955105;28;20676;-52
2023/01/12 07:40:58;;;;;;;51.27;24.83;;;;;;;;;;4955289;28;20290;-46
2023/01/12 07:43:25;;;;;;;53.00;27.13;;;;;;;;;;4954728;28;20231;-46
2023/01/12 07:45:55;;;;;;;57.50;27.60;;;;;;;;;;4955162;28;20569;-48
2023/01/12 07:48:23;;;;;;;55.40;26.50;;;;;;;;;;4954902;28;20224;-47
2023/01/12 07:50:51;;;;;;;62.53;31.80;;;;;;;;;;4954197;28;20290;-47
2023/01/12 07:53:19;;;;;;;55.53;31.40;;;;;;;;;;4964346;28;20227;-46
2023/01/12 07:55:46;;;;;;;50.57;27.57;;;;;;;;;;4953627;28;20691;-46
2023/01/12 07:58:13;;;;;;;58.77;28.33;;;;;;;;;;4953866;28;20612;-46
2023/01/12 08:00:40;;;;;;;58.40;28.27;;;;;;;;;;4953640;28;20227;-49
2023/01/12 08:03:09;;;;;;;56.70;27.70;;;;;;;;;;4954251;28;20239;-46
2023/01/12 08:05:37;;;;;;;53.50;26.70;;;;;;;;;;4958046;28;20235;-46
2023/01/12 08:08:05;;;;;;;51.13;27.73;;;;;;;;;;4958389;28;20321;-46
2023/01/12 08:10:32;;;;;;;56.03;28.50;;;;;;;;;;4957525;28;20243;-46
2023/01/12 08:12:59;;;;;;;58.37;29.13;;;;;;;;;;4957654;28;20251;-49
2023/01/12 08:15:32;;;;;;;60.73;30.23;;;;;;;;;;4956608;28;20232;-48
2023/01/12 08:18:03;;;;;;;58.57;29.27;;;;;;;;;;4957255;28;20316;-48
2023/01/12 08:20:36;;;;;;;64.67;31.23;;;;;;;;;;4956878;29;20235;-48
2023/01/12 08:23:22;;;;;;;61.00;31.47;;;;;;;;;;4964362;28;20316;-45
2023/01/12 08:25:55;;;;;;;76.77;41.73;;;;;;;;;;4976891;28;20370;-45
2023/01/12 08:28:37;;;;;;;119.77;49.07;;;;;;;;;;4976620;28;20238;-46
2023/01/12 08:31:08;;;;;;;200.17;113.23;;;;;;;;;;4976463;28;20238;-46
2023/01/12 08:33:36;;;;;;;215.47;114.43;;;;;;;;;;4976605;28;20218;-46
2023/01/12 08:36:04;;;;;;;314.03;176.37;;;;;;;;;;4976936;28;20292;-47
2023/01/12 08:38:31;;;;;;;295.40;164.20;;;;;;;;;;4976424;28;20225;-49
2023/01/12 08:44:03;;;;;;;155.83;93.47;;;;;;;;;;4976967;28;20230;-47
2023/01/12 08:46:36;;;;;;;148.13;88.23;;;;;;;;;;4976689;28;20242;-46
2023/01/12 08:49:07;;;;;;;123.73;73.63;;;;;;;;;;4975986;28;20226;-45
2023/01/12 08:51:35;;;;;;;108.43;58.40;;;;;;;;;;4963829;28;20765;-47
2023/01/12 08:54:02;;;;;;;99.73;56.17;;;;;;;;;;4957544;28;20230;-48
2023/01/12 08:56:29;;;;;;;106.80;60.10;;;;;;;;;;4957805;28;20235;-48
2023/01/12 08:58:56;;;;;;;104.63;60.33;;;;;;;;;;4956318;28;20245;-46
2023/01/12 09:01:24;;;;;;;115.83;74.63;;;;;;;;;;4957579;28;20227;-45
2023/01/12 09:03:51;;;;;;;109.10;68.40;;;;;;;;;;4957316;28;20234;-45
2023/01/12 09:06:21;;;;;;;99.70;58.10;;;;;;;;;;4956405;28;20227;-52
2023/01/12 09:08:58;;;;;;;77.17;43.97;;;;;;;;;;4957512;28;20254;-46
2023/01/12 09:11:26;;;;;;;75.70;47.20;;;;;;;;;;4957389;28;20302;-46
2023/01/12 09:13:57;;;;;;;67.80;37.00;;;;;;;;;;4957005;28;20235;-46
2023/01/12 09:16:26;;;;;;;69.37;38.70;;;;;;;;;;4956125;28;20228;-51
2023/01/12 09:18:53;;;;;;;107.47;57.77;;;;;;;;;;4956915;28;20228;-47
2023/01/12 09:21:22;;;;;;;158.63;78.20;;;;;;;;;;4955595;28;20692;-46
2023/01/12 09:23:50;;;;;;;192.87;95.93;;;;;;;;;;4957078;28;20231;-46
2023/01/12 09:26:19;;;;;;;201.07;95.33;;;;;;;;;;4957260;28;20227;-47
2023/01/12 09:28:46;;;;;;;260.50;124.33;;;;;;;;;;4957370;28;20227;-52
2023/01/12 09:31:16;;;;;;;196.93;98.87;;;;;;;;;;4957241;28;20227;-48
2023/01/12 09:33:45;;;;;;;116.93;65.13;;;;;;;;;;4957380;28;20235;-46
2023/01/12 09:36:15;;;;;;;87.77;51.03;;;;;;;;;;4956573;28;20227;-50
2023/01/12 09:38:43;;;;;;;90.20;50.27;;;;;;;;;;4955889;28;20314;-47
2023/01/12 09:46:57;;;;;;;114.47;58.63;;;;;;;;;;4956997;28;20227;-53
2023/01/12 09:47:08;;;;;;;89.10;51.07;;;;;;;;;;4968762;28;20235;-48
2023/01/12 09:49:40;;;;;;;93.77;50.17;;;;;;;;;;4974321;28;20273;-46
2023/01/12 09:52:12;;;;;;;89.97;50.87;;;;;;;;;;4974584;28;20230;-47
2023/01/12 09:54:40;;;;;;;68.97;39.00;;;;;;;;;;4973779;28;20308;-49
2023/01/12 09:57:25;;;;;;;71.50;38.27;;;;;;;;;;4975480;28;20251;-47
2023/01/12 10:00:02;;;;;;;68.13;35.33;;;;;;;;;;4973846;28;20290;-48
2023/01/12 10:02:42;;;;;;;71.47;36.63;;;;;;;;;;4974027;28;20845;-47
2023/01/12 10:05:32;;;;;;;64.43;37.47;;;;;;;;;;4989431;28;20249;-47
2023/01/12 10:08:14;;;;;;;76.83;39.90;;;;;;;;;;4975505;28;20235;-48
2023/01/12 10:10:47;;;;;;;76.37;42.33;;;;;;;;;;4975723;28;20229;-47
2023/01/12 10:13:15;;;;;;;67.20;37.67;;;;;;;;;;4974420;28;20242;-49
2023/01/12 10:15:53;;;;;;;68.20;36.63;;;;;;;;;;4975626;28;20230;-47
2023/01/12 10:18:27;;;;;;;61.30;32.53;;;;;;;;;;4975385;28;20238;-48
2023/01/12 10:20:54;;;;;;;65.67;35.73;;;;;;;;;;4974303;28;20231;-48
2023/01/12 10:23:25;;;;;;;58.17;34.07;;;;;;;;;;4980854;28;20285;-52
2023/01/12 10:26:07;;;;;;;60.87;33.50;;;;;;;;;;4971146;28;20548;-46
2023/01/12 10:28:35;;;;;;;60.23;33.00;;;;;;;;;;4955168;28;20254;-50
2023/01/12 10:31:03;;;;;;;68.03;36.73;;;;;;;;;;4955859;28;20232;-46
2023/01/12 10:33:33;;;;;;;57.80;31.10;;;;;;;;;;4955662;28;20262;-47
2023/01/12 10:36:00;;;;;;;59.00;32.93;;;;;;;;;;4955785;28;20246;-46
2023/01/12 10:38:56;;;;;;;61.50;32.47;;;;;;;;;;4955889;28;20223;-50
2023/01/12 10:41:25;;;;;;;60.30;30.15;;;;;;;;;;4955477;28;20223;-47
2023/01/12 10:43:55;;;;;;;58.83;31.40;;;;;;;;;;4955771;28;20231;-47
2023/01/12 10:46:25;;;;;;;64.37;36.67;;;;;;;;;;4955634;28;20602;-50
2023/01/12 10:48:54;;;;;;;62.75;33.58;;;;;;;;;;4955602;28;20238;-47
2023/01/12 10:51:27;;;;;;;64.30;32.03;;;;;;;;;;4970193;28;20314;-48
2023/01/12 10:54:15;;;;;;;61.80;31.97;;;;;;;;;;4955303;28;20253;-48
2023/01/12 10:56:52;;;;;;;67.57;33.40;;;;;;;;;;4970089;28;20233;-46
2023/01/12 10:59:20;;;;;;;63.10;35.40;;;;;;;;;;4954955;28;20215;-49
2023/01/12 11:02:10;;;;;;;63.73;32.30;;;;;;;;;;4955489;28;20259;-47
2023/01/12 11:04:39;;;;;;;64.15;36.72;;;;;;;;;;4955361;28;20223;-46
2023/01/12 11:07:18;;;;;;;69.20;39.93;;;;;;;;;;4954467;28;20239;-50
2023/01/12 11:09:45;;;;;;;69.97;38.53;;;;;;;;;;4955001;28;20551;-46
2023/01/12 11:12:34;;;;;;;60.30;32.93;;;;;;;;;;4955070;28;20653;-46
2023/01/12 11:15:11;;;;;;;70.60;39.40;;;;;;;;;;4955407;28;20227;-52
2023/01/12 11:17:47;;;;;;;63.53;34.60;;;;;;;;;;4954772;28;20226;-47
2023/01/12 11:20:25;;;;;;;53.40;29.67;;;;;;;;;;4954248;28;20219;-50
2023/01/12 11:22:54;;;;;;;71.82;39.67;;;;;;;;;;4969396;28;20235;-47
2023/01/12 11:25:23;;;;;;;66.27;36.23;;;;;;;;;;4955027;28;20310;-52
2023/01/12 11:28:01;;;;;;;67.97;34.60;;;;;;;;;;4969796;28;20238;-50
2023/01/12 11:30:43;;;;;;;57.10;28.40;;;;;;;;;;4954585;28;20560;-46
2023/01/12 11:33:10;;;;;;;62.10;30.63;;;;;;;;;;4954470;28;20310;-50
2023/01/12 11:36:04;;;;;;;49.70;25.80;;;;;;;;;;4954230;28;20235;-50
2023/01/12 11:38:35;;;;;;;56.93;30.77;;;;;;;;;;4955673;28;20373;-50
2023/01/12 11:41:07;;;;;;;62.53;32.60;;;;;;;;;;4974308;28;20218;-48
2023/01/12 11:43:48;;;;;;;60.42;29.70;;;;;;;;;;4974054;28;20238;-46
2023/01/12 11:46:25;;;;;;;58.37;29.50;;;;;;;;;;4973511;28;20215;-53
2023/01/12 11:49:17;;;;;;;69.33;35.53;;;;;;;;;;4958584;28;20254;-49
2023/01/12 11:51:47;;;;;;;61.75;30.40;;;;;;;;;;4958822;28;20242;-46
2023/01/12 11:54:16;;;;;;;72.00;37.03;;;;;;;;;;4958397;28;20650;-53
2023/01/12 11:56:53;;;;;;;60.00;30.03;;;;;;;;;;4974065;28;20282;-46
2023/01/12 11:59:22;;;;;;;156.80;79.10;;;;;;;;;;4958888;28;20300;-47
2023/01/12 12:01:55;;;;;;;58.17;33.43;;;;;;;;;;4959109;28;20223;-48
2023/01/12 12:04:34;;;;;;;59.93;31.80;;;;;;;;;;4973268;28;20290;-48
2023/01/12 12:07:13;;;;;;;58.50;31.33;;;;;;;;;;4958961;28;20222;-47
2023/01/12 12:09:56;;;;;;;59.90;30.97;;;;;;;;;;4957785;28;20229;-47
2023/01/12 12:12:37;;;;;;;63.63;31.70;;;;;;;;;;4989324;28;20238;-46
2023/01/12 12:15:09;;;;;;;51.67;27.80;;;;;;;;;;4973393;28;20230;-46
2023/01/12 12:17:51;;;;;;;63.43;32.33;;;;;;;;;;4958440;28;20636;-50
2023/01/12 12:20:31;;;;;;;66.43;34.13;;;;;;;;;;4962877;28;20242;-46
2023/01/12 12:23:16;;;;;;;76.60;41.47;;;;;;;;;;4977542;28;20282;-47
2023/01/12 12:25:52;;;;;;;68.93;35.43;;;;;;;;;;4973812;28;20199;-47
2023/01/12 12:28:37;;;;;;;69.93;34.70;;;;;;;;;;4958255;28;20519;-49
2023/01/12 12:31:32;;;;;;;71.40;36.50;;;;;;;;;;4968168;28;20190;-46
2023/01/12 12:34:20;;;;;;;90.65;45.95;;;;;;;;;;4976898;28;20222;-47
2023/01/12 12:37:26;;;;;;;208.02;106.03;;;;;;;;;;4977851;28;20206;-47
2023/01/12 12:39:57;;;;;;;68.07;40.97;;;;;;;;;;4977072;28;20202;-47
2023/01/12 12:45:58;;;;;;;53.30;27.97;;;;;;;;;;4977166;28;20199;-47
2023/01/12 12:48:31;;;;;;;46.97;25.67;;;;;;;;;;4976287;28;20613;-47
2023/01/12 12:51:05;;;;;;;48.00;26.53;;;;;;;;;;4976021;28;20187;-47
2023/01/12 12:53:38;;;;;;;41.90;25.30;;;;;;;;;;4977114;28;20242;-50
2023/01/12 12:56:11;;;;;;;47.60;25.63;;;;;;;;;;4975224;28;20234;-46
2023/01/12 12:58:42;;;;;;;44.05;25.23;;;;;;;;;;4975646;28;20289;-49
2023/01/12 13:01:18;;;;;;;71.13;35.93;;;;;;;;;;4961800;28;20231;-46
2023/01/12 13:03:48;;;;;;;49.13;26.57;;;;;;;;;;4967418;28;20667;-46
2023/01/12 13:06:21;;;;;;;57.47;27.92;;;;;;;;;;4969449;28;20548;-50
2023/01/12 13:08:51;;;;;;;43.22;24.05;;;;;;;;;;4959851;28;20218;-47
2023/01/12 13:11:19;;;;;;;48.72;27.15;;;;;;;;;;4976360;28;20263;-49
2023/01/12 13:13:58;;;;;;;51.23;26.70;;;;;;;;;;4956410;28;20243;-52
2023/01/12 13:16:26;;;;;;;87.72;35.17;;;;;;;;;;4970304;28;20233;-49
2023/01/12 13:18:53;;;;;;;234.00;118.18;;;;;;;;;;4976222;28;20238;-51
2023/01/12 13:21:29;;;;;;;103.20;53.60;;;;;;;;;;4966478;28;20604;-49
2023/01/12 13:24:08;;;;;;;79.43;36.73;;;;;;;;;;4957226;28;20350;-49
2023/01/12 13:26:38;;;;;;;61.67;28.87;;;;;;;;;;4956718;28;20245;-49
2023/01/12 13:29:27;;;;;;;69.70;29.73;;;;;;;;;;4957526;28;20200;-51
2023/01/12 13:32:18;;;;;;;51.70;26.77;;;;;;;;;;4957911;28;20196;-47
2023/01/12 13:34:45;;;;;;;51.53;26.07;;;;;;;;;;4955814;28;20231;-50
2023/01/12 13:37:16;;;;;;;53.17;27.00;;;;;;;;;;4957271;28;20219;-47
2023/01/12 13:40:03;;;;;;;62.00;29.83;;;;;;;;;;4957082;28;20211;-48
2023/01/12 13:45:18;;;;;;;69.45;30.17;;;;;;;;;;4956337;28;20621;-46
2023/01/12 13:47:48;;;;;;;65.03;31.23;;;;;;;;;;4957509;28;20208;-48
2023/01/12 13:50:21;;;;;;;52.87;28.87;;;;;;;;;;4957552;28;20223;-47
2023/01/12 13:52:58;;;;;;;52.20;27.77;;;;;;;;;;4956772;28;20219;-50
2023/01/12 13:55:28;;;;;;;56.08;29.17;;;;;;;;;;4956579;28;20559;-47
2023/01/12 13:57:58;;;;;;;310.35;129.20;;;;;;;;;;4975313;28;20241;-46
2023/01/12 14:00:26;;;;;;;112.50;82.07;;;;;;;;;;4975982;28;20202;-47
2023/01/12 14:02:55;;;;;;;77.20;40.47;;;;;;;;;;4976185;28;20218;-47
2023/01/12 14:05:54;;;;;;;74.88;33.15;;;;;;;;;;4972952;28;20280;-48
2023/01/12 14:08:43;;;;;;;53.50;27.77;;;;;;;;;;4970331;28;20196;-49
2023/01/12 14:11:51;;;;;;;56.63;27.58;;;;;;;;;;4963445;28;20278;-51
2023/01/12 14:17:49;;;;;;;52.90;26.80;;;;;;;;;;4974718;28;20199;-52
2023/01/12 14:20:44;;;;;;;55.35;25.40;;;;;;;;;;4971203;28;20277;-46
2023/01/12 14:23:28;;;;;;;280.08;162.80;;;;;;;;;;4973637;28;20250;-52
2023/01/12 14:26:26;;;;;;;229.67;155.30;;;;;;;;;;4962445;28;20231;-48
2023/01/12 14:28:53;;;;;;;238.90;185.27;;;;;;;;;;4953398;29;20747;-47
2023/01/12 14:31:25;;;;;;;113.67;85.43;;;;;;;;;;4953389;29;20616;-46
2023/01/12 14:33:55;;;;;;;114.30;88.37;;;;;;;;;;4935681;29;20321;-49
2023/01/12 14:36:31;;;;;;;77.77;56.47;;;;;;;;;;4952818;29;20227;-51
2023/01/12 14:38:59;;;;;;;110.53;66.93;;;;;;;;;;4952951;29;20227;-48
2023/01/12 14:47:05;;;;;;;145.33;104.37;;;;;;;;;;4952435;29;20565;-50
2023/01/12 14:49:35;;;;;;;78.40;47.07;;;;;;;;;;4953480;29;20227;-47
2023/01/12 14:52:24;;;;;;;248.53;106.37;;;;;;;;;;4952785;29;20688;-50
2023/01/12 14:54:52;;;;;;;244.13;104.57;;;;;;;;;;4953101;29;20265;-51
2023/01/12 14:57:32;;;;;;;84.77;50.07;;;;;;;;;;4953299;29;20219;-49
2023/01/12 15:00:00;;;;;;;247.50;129.23;;;;;;;;;;4953562;29;20636;-45
2023/01/12 15:02:31;;;;;;;289.63;111.20;;;;;;;;;;4952987;29;20571;-46
2023/01/12 15:05:07;;;;;;;237.43;101.83;;;;;;;;;;4955268;28;20310;-47
2023/01/12 15:07:55;;;;;;;157.33;73.80;;;;;;;;;;4959402;28;20223;-47
2023/01/12 15:10:34;;;;;;;117.57;51.90;;;;;;;;;;4955144;28;20315;-49
2023/01/12 15:13:20;;;;;;;73.43;32.93;;;;;;;;;;4955096;28;20314;-49
2023/01/12 15:27:15;;;;;;;76.10;38.27;;;;;;;;;;4974574;28;20226;-45
2023/01/12 15:29:42;;;;;;;63.33;31.20;;;;;;;;;;4965493;28;20223;-47
2023/01/12 15:32:20;;;;;;;58.60;30.77;;;;;;;;;;4954718;28;20238;-46
2023/01/12 15:34:48;;;;;;;114.93;49.93;;;;;;;;;;4971843;28;20238;-52
2023/01/12 15:37:16;;;;;;;82.03;41.30;;;;;;;;;;4973734;28;20234;-48
2023/01/12 15:39:44;;;;;;;68.03;36.57;;;;;;;;;;4973370;28;20227;-51